createdAt,value
2023-02-04T00:02:29.183Z,9.97
2023-02-04T00:07:30.506Z,9.38
2023-02-04T00:12:31.932Z,8.60
2023-02-04T00:17:33.242Z,10.52
2023-02-04T00:22:34.553Z,9.05
2023-02-04T00:27:35.842Z,8.53
2023-02-04T00:32:37.116Z,9.55
2023-02-04T00:37:38.409Z,10.60
2023-02-04T00:42:39.852Z,9.73
2023-02-04T00:47:41.140Z,9.70
2023-02-04T00:52:42.398Z,10.40
2023-02-04T00:57:44.354Z,9.85
2023-02-04T01:02:45.710Z,9.23
2023-02-04T01:07:47.072Z,9.75
2023-02-04T01:12:48.557Z,10.75
2023-02-04T01:17:50.089Z,10.37
2023-02-04T01:22:51.379Z,8.48
2023-02-04T01:27:52.662Z,7.73
2023-02-04T01:32:53.977Z,8.88
2023-02-04T01:37:55.248Z,10.65
2023-02-04T01:42:57.728Z,9.20
2023-02-04T01:47:59.254Z,8.27
2023-02-04T01:53:00.887Z,8.17
2023-02-04T01:58:03.093Z,7.38
2023-02-04T02:03:04.971Z,8.60
2023-02-04T02:08:06.669Z,9.87
2023-02-04T02:13:10.082Z,9.00
2023-02-04T02:18:11.347Z,8.07
2023-02-04T02:23:22.795Z,6.32
2023-02-04T02:28:24.240Z,6.88
2023-02-04T02:33:26.197Z,5.23
2023-02-04T02:38:27.734Z,6.43
2023-02-04T02:43:29.553Z,7.23
2023-02-04T02:48:30.836Z,6.38
2023-02-04T02:53:32.136Z,7.63
2023-02-04T02:58:34.562Z,6.87
2023-02-04T03:03:37.159Z,6.10
2023-02-04T03:08:38.803Z,8.30
2023-02-04T03:13:40.430Z,6.82
2023-02-04T03:18:42.026Z,7.55
2023-02-04T03:23:43.536Z,7.57
2023-02-04T03:28:44.789Z,7.50
2023-02-04T03:33:46.134Z,7.40
2023-02-04T03:38:47.370Z,8.95
2023-02-04T03:43:48.640Z,8.80
2023-02-04T03:48:49.924Z,12.27
2023-02-04T03:53:51.306Z,9.18
2023-02-04T03:58:52.613Z,8.23
2023-02-04T04:03:53.851Z,9.32
2023-02-04T04:08:55.088Z,7.70
2023-02-04T04:13:56.368Z,12.30
2023-02-04T04:18:57.775Z,10.40
2023-02-04T04:23:59.023Z,9.67
2023-02-04T04:29:00.271Z,10.15
2023-02-04T04:34:02.081Z,11.00
2023-02-04T04:39:03.445Z,8.90
2023-02-04T04:44:04.761Z,11.07
2023-02-04T04:49:06.350Z,8.83
2023-02-04T04:54:08.189Z,9.95
2023-02-04T04:59:09.976Z,11.38
2023-02-04T05:04:11.244Z,12.47
2023-02-04T05:09:12.612Z,9.98
2023-02-04T05:14:13.855Z,8.87
2023-02-04T05:19:15.091Z,6.90
2023-02-04T05:24:16.365Z,12.05
2023-02-04T05:29:17.737Z,12.77
2023-02-04T05:34:19.021Z,10.32
2023-02-04T05:39:20.365Z,10.73
2023-02-04T05:44:21.662Z,9.52
2023-02-04T05:49:25.358Z,18.60
2023-02-04T05:54:26.708Z,11.30
2023-02-04T05:59:30.908Z,9.95
2023-02-04T06:04:32.319Z,11.47
2023-02-04T06:09:33.691Z,12.45
2023-02-04T06:14:34.952Z,12.52
2023-02-04T06:19:36.281Z,9.00
2023-02-04T06:24:37.576Z,9.85
2023-02-04T06:29:38.859Z,12.33
2023-02-04T06:34:40.151Z,10.85
2023-02-04T06:39:41.473Z,16.70
2023-02-04T06:44:42.822Z,11.93
2023-02-04T06:49:44.176Z,11.02
2023-02-04T06:54:45.462Z,11.47
2023-02-04T06:59:47.125Z,12.55
2023-02-04T07:04:49.247Z,13.73
2023-02-04T07:09:50.499Z,16.53
2023-02-04T07:14:51.780Z,13.48
2023-02-04T07:19:53.037Z,12.87
2023-02-04T07:24:54.276Z,12.82
2023-02-04T07:29:55.557Z,12.63
2023-02-04T07:34:56.831Z,13.70
2023-02-04T07:39:58.119Z,19.60
2023-02-04T07:44:59.372Z,12.93
2023-02-04T07:50:00.659Z,16.45
2023-02-04T07:55:01.987Z,15.98
2023-02-04T08:00:03.761Z,12.33
2023-02-04T08:05:05.216Z,11.18
2023-02-04T08:10:07.498Z,13.17
2023-02-04T08:15:09.103Z,13.60
2023-02-04T08:20:10.993Z,14.35
2023-02-04T08:25:12.417Z,12.33
2023-02-04T08:30:13.832Z,12.95
2023-02-04T08:35:15.205Z,14.30
2023-02-04T08:40:16.507Z,13.95
2023-02-04T08:45:17.821Z,13.55
2023-02-04T08:50:19.175Z,16.40
2023-02-04T08:55:20.430Z,25.17
2023-02-04T09:00:21.820Z,20.77
2023-02-04T09:05:23.063Z,13.85
2023-02-04T09:10:24.475Z,13.15
2023-02-04T09:15:25.793Z,11.67
2023-02-04T09:20:27.100Z,16.80
2023-02-04T09:25:28.344Z,10.53
2023-02-04T09:30:29.747Z,12.77
2023-02-04T09:35:31.609Z,13.73
2023-02-04T09:40:40.873Z,11.33
2023-02-04T09:45:42.303Z,10.15
2023-02-04T09:50:43.892Z,11.77
2023-02-04T09:55:46.413Z,8.68
2023-02-04T10:00:48.934Z,12.68
2023-02-04T10:05:51.322Z,14.27
2023-02-04T10:10:52.628Z,15.23
2023-02-04T10:15:53.930Z,11.67
2023-02-04T10:20:57.509Z,16.83
2023-02-04T10:25:59.831Z,13.88
2023-02-04T10:31:01.444Z,14.90
2023-02-04T10:36:04.623Z,16.67
2023-02-04T10:41:05.977Z,16.80
2023-02-04T10:46:07.312Z,16.80
2023-02-04T10:51:12.632Z,14.75
2023-02-04T10:56:18.193Z,15.70
2023-02-04T11:01:19.541Z,18.95
2023-02-04T11:06:22.124Z,20.67
2023-02-04T11:11:25.064Z,10.70
2023-02-04T11:16:27.865Z,16.20
2023-02-04T11:21:32.195Z,16.27
2023-02-04T11:26:43.020Z,15.30
2023-02-04T11:32:07.041Z,17.10
2023-02-04T11:37:13.653Z,18.55
2023-02-04T11:42:23.170Z,15.05
2023-02-04T11:47:25.922Z,14.03
2023-02-04T11:52:27.258Z,17.58
2023-02-04T11:57:28.592Z,16.77
2023-02-04T12:02:41.210Z,18.10
2023-02-04T12:07:42.848Z,16.70
2023-02-04T12:12:48.558Z,17.37
2023-02-04T12:18:07.427Z,16.40
2023-02-04T12:23:08.696Z,9.67
2023-02-04T12:28:12.874Z,11.75
2023-02-04T12:33:15.148Z,11.13
2023-02-04T12:38:16.547Z,9.03
2023-02-04T12:43:17.880Z,12.07
2023-02-04T12:48:19.172Z,12.87
2023-02-04T12:53:20.425Z,15.95
2023-02-04T12:58:21.778Z,17.38
2023-02-04T13:03:24.135Z,17.60
2023-02-04T13:08:25.510Z,17.52
2023-02-04T13:13:26.918Z,12.83
2023-02-04T13:18:30.597Z,16.83
2023-02-04T13:23:31.849Z,20.40
2023-02-04T13:28:33.138Z,16.47
2023-02-04T13:33:34.443Z,14.65
2023-02-04T13:38:36.102Z,15.73
2023-02-04T13:43:37.416Z,18.70
2023-02-04T13:48:38.656Z,14.77
2023-02-04T13:53:40.360Z,11.67
2023-02-04T13:58:43.817Z,12.00
2023-02-04T14:03:45.314Z,11.13
2023-02-04T14:08:47.274Z,8.10
2023-02-04T14:13:50.869Z,9.77
2023-02-04T14:18:52.238Z,15.13
2023-02-04T14:23:53.479Z,14.52
2023-02-04T14:28:54.770Z,14.47
2023-02-04T14:33:56.225Z,14.30
2023-02-04T14:38:57.487Z,15.40
2023-02-04T14:43:58.781Z,11.33
2023-02-04T14:49:00.200Z,17.15
2023-02-04T14:54:02.621Z,17.70
2023-02-04T14:59:04.140Z,12.65
2023-02-04T15:04:07.625Z,16.55
2023-02-04T15:09:09.163Z,12.40
2023-02-04T15:14:10.565Z,17.63
2023-02-04T15:19:11.831Z,18.90
2023-02-04T15:24:13.123Z,19.25
2023-02-04T15:29:14.409Z,15.23
2023-02-04T15:34:15.696Z,12.87
2023-02-04T15:39:16.979Z,15.00
2023-02-04T15:44:18.238Z,16.57
2023-02-04T15:49:19.585Z,15.80
2023-02-04T15:54:20.892Z,15.35
2023-02-04T15:59:22.281Z,17.83
2023-02-04T16:04:23.609Z,9.02
2023-02-04T16:09:24.962Z,13.43
2023-02-04T16:14:26.288Z,16.98
2023-02-04T16:19:27.745Z,19.95
2023-02-04T16:24:29.068Z,22.73
2023-02-04T16:29:30.548Z,23.20
2023-02-04T16:34:31.821Z,25.67
2023-02-04T16:39:33.190Z,23.10
2023-02-04T16:44:34.981Z,17.60
2023-02-04T16:49:36.306Z,18.37
2023-02-04T16:54:37.699Z,22.63
2023-02-04T16:59:39.000Z,23.73
2023-02-04T17:04:40.310Z,19.20
2023-02-04T17:09:42.233Z,20.30
2023-02-04T17:14:43.519Z,21.40
2023-02-04T17:19:44.828Z,17.85
2023-02-04T17:24:46.139Z,22.43
2023-02-04T17:29:47.491Z,29.27
2023-02-04T17:34:50.722Z,41.35
2023-02-04T17:39:52.052Z,67.57
2023-02-04T17:44:53.412Z,38.95
2023-02-04T17:49:54.761Z,25.40
2023-02-04T17:54:56.124Z,24.55
2023-02-04T17:59:57.507Z,30.08
2023-02-04T18:05:05.638Z,33.90
2023-02-04T18:10:10.626Z,21.98
2023-02-04T18:15:20.732Z,21.13
2023-02-04T18:20:22.259Z,30.05
2023-02-04T18:25:23.966Z,31.25
2023-02-04T18:30:27.749Z,21.90
2023-02-04T18:35:37.617Z,31.38
2023-02-04T18:40:41.332Z,25.70
2023-02-04T18:45:43.008Z,21.73
2023-02-04T18:50:44.902Z,22.77
2023-02-04T18:55:47.657Z,24.67
2023-02-04T19:00:51.515Z,51.70
2023-02-04T19:05:53.361Z,27.50
2023-02-04T19:10:55.767Z,28.92
2023-02-04T19:16:02.334Z,38.40
2023-02-04T19:21:17.872Z,30.40
2023-02-04T19:26:27.486Z,34.55
2023-02-04T19:31:34.002Z,36.60
2023-02-04T19:36:39.855Z,28.80
2023-02-04T19:41:45.054Z,24.65
2023-02-04T19:46:46.354Z,40.03
2023-02-04T19:51:50.272Z,30.70
2023-02-04T19:56:53.179Z,27.73
2023-02-04T20:02:03.706Z,27.00
2023-02-04T20:07:14.289Z,24.35
2023-02-04T20:12:16.339Z,21.50
2023-02-04T20:17:34.085Z,29.65
2023-02-04T20:22:38.929Z,33.67
2023-02-04T20:27:41.676Z,37.58
2023-02-04T20:32:44.777Z,26.63
2023-02-04T20:37:49.822Z,30.20
2023-02-04T20:43:04.058Z,24.48
2023-02-04T20:48:17.571Z,21.53
2023-02-04T20:53:22.132Z,24.92
2023-02-04T20:58:24.525Z,24.83
2023-02-04T21:03:27.423Z,26.77
2023-02-04T21:08:29.446Z,30.15
2023-02-04T21:13:30.825Z,28.43
2023-02-04T21:18:34.566Z,26.55
2023-02-04T21:23:36.534Z,28.98
2023-02-04T21:28:37.993Z,30.23
2023-02-04T21:33:39.398Z,32.08
2023-02-04T21:38:40.810Z,28.17
2023-02-04T21:43:42.624Z,26.77
2023-02-04T21:48:44.368Z,27.65
2023-02-04T21:53:45.697Z,22.13
2023-02-04T21:58:46.996Z,24.00
2023-02-04T22:03:48.373Z,27.03
2023-02-04T22:08:49.727Z,28.08
2023-02-04T22:13:51.014Z,24.30
2023-02-04T22:18:52.355Z,28.23
2023-02-04T22:23:53.616Z,26.02
2023-02-04T22:28:54.955Z,24.10
2023-02-04T22:33:56.412Z,23.33
2023-02-04T22:38:57.683Z,24.10
2023-02-04T22:43:58.948Z,25.23
2023-02-04T22:49:00.325Z,22.38
2023-02-04T22:54:01.632Z,26.87
2023-02-04T22:59:03.186Z,27.45
2023-02-04T23:04:04.498Z,26.33
2023-02-04T23:09:05.804Z,21.63
2023-02-04T23:14:07.092Z,23.67
2023-02-04T23:19:08.378Z,24.70
2023-02-04T23:24:09.628Z,23.42
2023-02-04T23:29:10.886Z,19.88
2023-02-04T23:34:12.188Z,22.47
2023-02-04T23:39:13.533Z,28.83
2023-02-04T23:44:15.094Z,18.23
2023-02-04T23:49:16.524Z,18.95
2023-02-04T23:54:17.809Z,22.45
2023-02-04T23:59:19.058Z,29.43
